Time;durP1;ratioP1;P1;durP2;ratioP2;P2;SDS_P1;SDS_P2;PMS_P1;PMS_P2;Temp;Humidity;BMP_temperature;BMP_pressure;BME280_temperature;BME280_humidity;BME280_pressure;Samples;Min_cycle;Max_cycle;Signal;HPM_P1;HPM_P2
2022/01/30 00:00:44;;;;;;;4.15;2.60;;;;;;;;;;5086627;28;20032;-74
2022/01/30 00:03:10;;;;;;;6.22;2.60;;;;;;;;;;5085980;28;20033;-74
2022/01/30 00:05:36;;;;;;;6.45;2.42;;;;;;;;;;5086295;28;20032;-75
2022/01/30 00:08:01;;;;;;;6.40;3.03;;;;;;;;;;5086367;28;20121;-75
2022/01/30 00:10:28;;;;;;;8.85;2.95;;;;;;;;;;5086120;28;20032;-75
2022/01/30 00:12:54;;;;;;;4.63;2.55;;;;;;;;;;5080273;28;20024;-75
2022/01/30 00:15:34;;;;;;;6.18;2.92;;;;;;;;;;5080640;28;20308;-74
2022/01/30 00:18:10;;;;;;;5.80;2.95;;;;;;;;;;5080061;28;20299;-74
2022/01/30 00:20:38;;;;;;;6.28;3.03;;;;;;;;;;5083352;28;20059;-75
2022/01/30 00:23:15;;;;;;;5.32;3.00;;;;;;;;;;5083381;28;20364;-75
2022/01/30 00:25:52;;;;;;;4.65;2.85;;;;;;;;;;5083305;28;20092;-75
2022/01/30 00:28:20;;;;;;;4.65;2.97;;;;;;;;;;5082875;28;20305;-74
2022/01/30 00:30:46;;;;;;;5.00;3.03;;;;;;;;;;5083022;28;20070;-74
2022/01/30 00:33:11;;;;;;;5.75;3.13;;;;;;;;;;5083077;28;20024;-74
2022/01/30 00:35:37;;;;;;;5.32;3.28;;;;;;;;;;5083326;28;20044;-74
2022/01/30 00:38:04;;;;;;;4.30;2.78;;;;;;;;;;5083268;28;20029;-74
2022/01/30 00:40:30;;;;;;;4.82;2.97;;;;;;;;;;5083436;28;20028;-75
2022/01/30 00:42:56;;;;;;;6.50;3.10;;;;;;;;;;5082382;28;20365;-74
2022/01/30 00:45:21;;;;;;;7.55;3.25;;;;;;;;;;5082891;28;20024;-74
2022/01/30 00:47:46;;;;;;;5.10;3.10;;;;;;;;;;5089165;28;20028;-75
2022/01/30 00:50:12;;;;;;;5.63;2.80;;;;;;;;;;5082524;28;20033;-74
2022/01/30 00:52:37;;;;;;;5.18;2.92;;;;;;;;;;5082706;28;20081;-75
2022/01/30 00:55:03;;;;;;;4.80;2.80;;;;;;;;;;5082513;28;20033;-74
2022/01/30 00:57:29;;;;;;;6.30;2.88;;;;;;;;;;5082281;28;20037;-74
2022/01/30 00:59:54;;;;;;;8.63;2.90;;;;;;;;;;5082754;28;20090;-75
2022/01/30 01:02:20;;;;;;;4.10;2.55;;;;;;;;;;5082432;28;20024;-74
2022/01/30 01:04:45;;;;;;;4.18;2.30;;;;;;;;;;5082297;28;20103;-75
2022/01/30 01:07:18;;;;;;;5.32;2.50;;;;;;;;;;5082058;28;20036;-75
2022/01/30 01:09:56;;;;;;;5.70;2.60;;;;;;;;;;5081904;28;20021;-75
2022/01/30 01:23:40;;;;;;;5.20;2.70;;;;;;;;;;5012716;28;20112;-75
2022/01/30 01:26:06;;;;;;;4.47;2.72;;;;;;;;;;5065845;28;20044;-75
2022/01/30 01:28:32;;;;;;;4.78;2.60;;;;;;;;;;5081609;28;20102;-74
2022/01/30 01:30:57;;;;;;;7.63;2.90;;;;;;;;;;5088281;28;20118;-74
2022/01/30 01:33:27;;;;;;;5.10;2.58;;;;;;;;;;5081742;28;20251;-74
2022/01/30 01:35:53;;;;;;;4.15;2.70;;;;;;;;;;5081734;28;20056;-74
2022/01/30 01:38:19;;;;;;;4.55;2.85;;;;;;;;;;5081848;28;20405;-75
2022/01/30 01:40:51;;;;;;;6.57;2.95;;;;;;;;;;5081190;28;20031;-75
2022/01/30 01:43:21;;;;;;;5.05;3.00;;;;;;;;;;5095009;28;20033;-75
2022/01/30 01:45:49;;;;;;;6.28;3.00;;;;;;;;;;5075357;28;20042;-75
2022/01/30 01:48:15;;;;;;;6.40;3.50;;;;;;;;;;5075195;28;20020;-75
2022/01/30 01:50:45;;;;;;;5.82;3.10;;;;;;;;;;5094675;28;20032;-75
2022/01/30 01:53:14;;;;;;;5.30;3.00;;;;;;;;;;5063341;28;20282;-75
2022/01/30 01:55:42;;;;;;;5.80;3.30;;;;;;;;;;5057209;28;20046;-75
2022/01/30 01:58:07;;;;;;;5.38;3.10;;;;;;;;;;5087276;28;20024;-75
2022/01/30 02:00:34;;;;;;;6.13;3.03;;;;;;;;;;5075340;28;20020;-75
2022/01/30 02:03:00;;;;;;;8.27;3.60;;;;;;;;;;5081658;28;20197;-75
2022/01/30 02:05:27;;;;;;;7.57;3.40;;;;;;;;;;5081459;28;20024;-75
2022/01/30 02:10:28;;;;;;;6.03;3.40;;;;;;;;;;5080115;28;20324;-74
2022/01/30 02:12:56;;;;;;;6.25;3.35;;;;;;;;;;5074423;28;20224;-74
2022/01/30 02:26:01;;;;;;;10.02;3.47;;;;;;;;;;5077869;28;20123;-76
2022/01/30 02:28:28;;;;;;;8.48;3.95;;;;;;;;;;5080320;28;20084;-77
2022/01/30 02:31:06;;;;;;;6.35;3.72;;;;;;;;;;5077358;28;20396;-76
2022/01/30 02:33:31;;;;;;;6.07;3.55;;;;;;;;;;5074904;28;20028;-76
2022/01/30 02:35:57;;;;;;;8.10;3.85;;;;;;;;;;5071136;28;20028;-77
2022/01/30 02:38:23;;;;;;;7.80;3.75;;;;;;;;;;5079649;28;20035;-76
2022/01/30 02:40:51;;;;;;;8.10;3.75;;;;;;;;;;5069143;28;20264;-76
2022/01/30 02:43:20;;;;;;;8.88;4.00;;;;;;;;;;5082595;28;20017;-76
2022/01/30 02:45:59;;;;;;;10.38;3.75;;;;;;;;;;5073462;28;20035;-77
2022/01/30 02:48:32;;;;;;;7.07;3.67;;;;;;;;;;5075413;28;20024;-77
2022/01/30 02:51:09;;;;;;;7.80;3.45;;;;;;;;;;5071128;28;20035;-77
2022/01/30 02:53:40;;;;;;;8.68;3.65;;;;;;;;;;5077644;28;20021;-76
2022/01/30 02:56:05;;;;;;;7.47;3.83;;;;;;;;;;5073951;28;21231;-77
2022/01/30 02:58:30;;;;;;;7.70;4.07;;;;;;;;;;5070515;28;20035;-78
2022/01/30 03:00:56;;;;;;;6.18;3.58;;;;;;;;;;5071173;28;20024;-77
2022/01/30 03:03:21;;;;;;;7.60;3.60;;;;;;;;;;5079763;28;20048;-78
2022/01/30 03:05:47;;;;;;;10.90;3.90;;;;;;;;;;5068591;28;20029;-76
2022/01/30 03:08:12;;;;;;;6.15;3.70;;;;;;;;;;5086743;28;20019;-78
2022/01/30 03:10:37;;;;;;;9.77;3.80;;;;;;;;;;5085797;28;20047;-77
2022/01/30 03:13:03;;;;;;;11.38;4.07;;;;;;;;;;5079975;28;20021;-77
2022/01/30 03:15:28;;;;;;;8.88;4.05;;;;;;;;;;5080589;28;20231;-77
2022/01/30 03:17:53;;;;;;;8.70;3.70;;;;;;;;;;5080241;28;20308;-77
2022/01/30 03:20:21;;;;;;;12.32;3.70;;;;;;;;;;5080251;28;20246;-77
2022/01/30 03:22:46;;;;;;;6.80;3.47;;;;;;;;;;5071408;28;20020;-76
2022/01/30 03:25:12;;;;;;;8.90;4.07;;;;;;;;;;5080320;28;20028;-77
2022/01/30 03:27:40;;;;;;;12.00;4.28;;;;;;;;;;5079750;28;20051;-77
2022/01/30 03:30:13;;;;;;;10.05;4.15;;;;;;;;;;5080223;28;20078;-77
2022/01/30 03:32:39;;;;;;;11.25;4.03;;;;;;;;;;5074015;28;20027;-77
2022/01/30 03:35:04;;;;;;;12.18;4.45;;;;;;;;;;5085119;28;20012;-76
2022/01/30 03:37:30;;;;;;;15.95;4.43;;;;;;;;;;5073151;28;20066;-77
2022/01/30 03:39:55;;;;;;;8.90;4.00;;;;;;;;;;5080067;28;20061;-77
2022/01/30 03:42:21;;;;;;;11.63;4.47;;;;;;;;;;5078817;28;20016;-77
2022/01/30 03:44:47;;;;;;;16.83;4.40;;;;;;;;;;5075348;28;20233;-76
2022/01/30 03:47:12;;;;;;;12.15;4.20;;;;;;;;;;5076450;28;20032;-76
2022/01/30 03:49:39;;;;;;;11.90;4.15;;;;;;;;;;5079917;28;20238;-76
2022/01/30 03:52:05;;;;;;;10.38;4.07;;;;;;;;;;5072765;28;20021;-76
2022/01/30 03:54:32;;;;;;;12.27;4.32;;;;;;;;;;5080407;28;20072;-76
2022/01/30 03:56:58;;;;;;;12.93;4.28;;;;;;;;;;5082678;28;20028;-76
2022/01/30 03:59:23;;;;;;;12.32;4.20;;;;;;;;;;5080128;28;20032;-76
2022/01/30 04:01:48;;;;;;;15.10;4.68;;;;;;;;;;5080361;28;20028;-76
2022/01/30 04:04:14;;;;;;;12.30;4.30;;;;;;;;;;5086278;28;20043;-76
2022/01/30 04:06:39;;;;;;;12.38;4.15;;;;;;;;;;5081596;28;20040;-76
2022/01/30 04:09:05;;;;;;;11.85;4.25;;;;;;;;;;5082729;28;20239;-77
2022/01/30 04:11:31;;;;;;;13.57;4.35;;;;;;;;;;5081112;28;20028;-76
2022/01/30 04:13:56;;;;;;;16.40;5.18;;;;;;;;;;5082706;28;20036;-76
2022/01/30 04:16:22;;;;;;;19.40;4.53;;;;;;;;;;5082741;28;20092;-76
2022/01/30 04:18:47;;;;;;;13.68;4.47;;;;;;;;;;5080361;28;20055;-76
2022/01/30 04:21:13;;;;;;;12.07;4.40;;;;;;;;;;5085103;28;20036;-75
2022/01/30 04:23:39;;;;;;;11.13;4.22;;;;;;;;;;5088394;28;20252;-76
2022/01/30 04:26:05;;;;;;;13.10;4.57;;;;;;;;;;5082322;28;20028;-76
2022/01/30 04:28:31;;;;;;;12.77;4.07;;;;;;;;;;5082239;28;20087;-75
2022/01/30 04:30:56;;;;;;;17.23;4.03;;;;;;;;;;5081767;28;20043;-75
2022/01/30 04:33:22;;;;;;;14.55;3.47;;;;;;;;;;5074153;28;20028;-76
2022/01/30 04:35:47;;;;;;;12.50;3.45;;;;;;;;;;5068995;28;20033;-75
2022/01/30 05:04:54;;;;;;;13.07;2.22;;;;;;;;;;5082244;28;20040;-76
2022/01/30 05:09:46;;;;;;;8.65;1.90;;;;;;;;;;5082160;28;20012;-76
2022/01/30 05:12:13;;;;;;;11.07;2.22;;;;;;;;;;5081590;28;20339;-76
2022/01/30 05:14:38;;;;;;;10.52;2.08;;;;;;;;;;5082182;28;20027;-76
2022/01/30 05:17:05;;;;;;;16.08;2.53;;;;;;;;;;5082104;28;20056;-76
2022/01/30 05:19:31;;;;;;;12.40;2.55;;;;;;;;;;5081874;28;20024;-76
2022/01/30 05:21:58;;;;;;;11.13;1.95;;;;;;;;;;5081731;28;20338;-75
2022/01/30 05:24:24;;;;;;;10.82;2.25;;;;;;;;;;5081683;28;20024;-76
2022/01/30 05:26:50;;;;;;;15.95;2.22;;;;;;;;;;5081118;28;20027;-76
2022/01/30 05:29:16;;;;;;;12.50;2.28;;;;;;;;;;5075534;28;20020;-76
2022/01/30 05:31:45;;;;;;;12.85;2.28;;;;;;;;;;5069763;28;20155;-77
2022/01/30 05:34:11;;;;;;;14.23;2.40;;;;;;;;;;5081004;28;20069;-76
2022/01/30 05:36:40;;;;;;;10.30;2.03;;;;;;;;;;5081864;28;20024;-76
2022/01/30 05:39:07;;;;;;;11.13;1.95;;;;;;;;;;5088148;28;20024;-76
2022/01/30 05:41:33;;;;;;;12.63;2.45;;;;;;;;;;5081232;28;20241;-76
2022/01/30 05:44:08;;;;;;;10.60;2.00;;;;;;;;;;5081936;28;20024;-76
2022/01/30 05:46:47;;;;;;;;;;;;;;;;;;5082131;28;20245;-76
2022/01/30 05:49:14;;;;;;;14.10;2.20;;;;;;;;;;5081415;28;19915;-76
2022/01/30 05:51:39;;;;;;;15.25;2.40;;;;;;;;;;5078987;28;20040;-76
2022/01/30 05:54:05;;;;;;;11.32;1.90;;;;;;;;;;5075421;28;20028;-76
2022/01/30 05:56:30;;;;;;;11.55;2.35;;;;;;;;;;5062731;28;20307;-76
2022/01/30 05:58:56;;;;;;;16.85;2.22;;;;;;;;;;5079890;28;20027;-76
2022/01/30 06:01:21;;;;;;;12.00;2.10;;;;;;;;;;5087193;28;20086;-76
2022/01/30 06:03:47;;;;;;;15.32;2.33;;;;;;;;;;5081070;28;20044;-76
2022/01/30 06:06:13;;;;;;;10.07;2.03;;;;;;;;;;5076263;28;20040;-75
2022/01/30 06:11:04;;;;;;;11.10;2.22;;;;;;;;;;5080797;28;20086;-75
2022/01/30 06:13:30;;;;;;;11.23;2.30;;;;;;;;;;5081031;28;20214;-76
2022/01/30 06:15:55;;;;;;;13.73;2.20;;;;;;;;;;5086144;28;20024;-76
2022/01/30 06:18:20;;;;;;;13.57;2.40;;;;;;;;;;5077054;28;20017;-76
2022/01/30 06:20:46;;;;;;;12.57;2.08;;;;;;;;;;5081158;28;20305;-76
2022/01/30 06:23:11;;;;;;;13.20;2.20;;;;;;;;;;5075414;28;20024;-76
2022/01/30 06:25:37;;;;;;;9.63;1.98;;;;;;;;;;5077672;28;20329;-76
2022/01/30 06:28:02;;;;;;;14.20;2.53;;;;;;;;;;5077957;28;20032;-76
2022/01/30 06:30:28;;;;;;;18.52;2.55;;;;;;;;;;5080561;28;20029;-75
2022/01/30 06:32:53;;;;;;;13.18;2.33;;;;;;;;;;5080606;28;20032;-76
2022/01/30 06:35:18;;;;;;;11.18;2.17;;;;;;;;;;5086797;28;20020;-76
2022/01/30 06:37:44;;;;;;;17.95;2.60;;;;;;;;;;5080334;28;20021;-76
2022/01/30 06:40:11;;;;;;;18.00;3.05;;;;;;;;;;5083864;28;20032;-76
2022/01/30 06:42:36;;;;;;;9.77;2.00;;;;;;;;;;5080647;28;20063;-77
2022/01/30 06:45:02;;;;;;;9.52;2.20;;;;;;;;;;5079888;28;20036;-76
2022/01/30 06:47:27;;;;;;;12.27;2.38;;;;;;;;;;5075115;28;20034;-76
2022/01/30 06:49:52;;;;;;;10.57;2.42;;;;;;;;;;5079427;28;20361;-76
2022/01/30 06:52:18;;;;;;;11.27;2.50;;;;;;;;;;5080058;28;20088;-77
2022/01/30 06:54:43;;;;;;;14.15;2.17;;;;;;;;;;5059587;28;20107;-76
2022/01/30 06:57:09;;;;;;;12.93;2.53;;;;;;;;;;5078543;28;20031;-76
2022/01/30 06:59:34;;;;;;;11.68;1.98;;;;;;;;;;5080025;28;20332;-76
2022/01/30 07:02:00;;;;;;;9.68;2.08;;;;;;;;;;5080481;28;20087;-76
2022/01/30 07:04:25;;;;;;;15.43;2.42;;;;;;;;;;5081696;28;20270;-76
2022/01/30 07:06:51;;;;;;;11.75;2.15;;;;;;;;;;5079855;28;20078;-77
2022/01/30 07:09:17;;;;;;;9.73;1.90;;;;;;;;;;5077593;28;20095;-76
2022/01/30 07:11:42;;;;;;;13.00;2.00;;;;;;;;;;5062212;28;20032;-76
2022/01/30 07:14:08;;;;;;;11.35;2.03;;;;;;;;;;5078834;28;20027;-77
2022/01/30 07:16:33;;;;;;;10.98;2.28;;;;;;;;;;5083498;28;20024;-76
2022/01/30 07:18:59;;;;;;;16.42;2.50;;;;;;;;;;5083850;28;20027;-78
2022/01/30 07:21:24;;;;;;;14.25;2.20;;;;;;;;;;5081018;28;20029;-77
2022/01/30 07:23:50;;;;;;;12.27;2.33;;;;;;;;;;5089061;28;20122;-77
2022/01/30 07:26:15;;;;;;;12.60;2.30;;;;;;;;;;5087249;28;20024;-77
2022/01/30 07:28:40;;;;;;;13.75;2.30;;;;;;;;;;5085156;28;20033;-77
2022/01/30 07:31:06;;;;;;;13.02;2.35;;;;;;;;;;5079824;28;20096;-77
2022/01/30 07:33:33;;;;;;;9.98;2.30;;;;;;;;;;5082912;28;20044;-78
2022/01/30 07:35:59;;;;;;;11.50;2.55;;;;;;;;;;5084009;28;20321;-78
2022/01/30 07:38:25;;;;;;;10.00;2.70;;;;;;;;;;5091099;28;20212;-78
2022/01/30 07:40:51;;;;;;;10.10;2.65;;;;;;;;;;5083954;28;20051;-78
2022/01/30 07:43:17;;;;;;;13.20;2.50;;;;;;;;;;5081805;28;20040;-79
2022/01/30 07:45:42;;;;;;;11.70;2.50;;;;;;;;;;5079037;28;20092;-77
2022/01/30 07:48:07;;;;;;;11.75;2.38;;;;;;;;;;5084160;28;20017;-78
2022/01/30 07:50:33;;;;;;;10.18;2.50;;;;;;;;;;5084101;28;20031;-78
2022/01/30 07:52:58;;;;;;;15.35;3.30;;;;;;;;;;5085488;28;20130;-78
2022/01/30 07:55:24;;;;;;;10.75;2.60;;;;;;;;;;5083601;28;20374;-79
2022/01/30 07:57:49;;;;;;;12.90;2.78;;;;;;;;;;5083775;28;20092;-79
2022/01/30 08:00:15;;;;;;;10.80;2.80;;;;;;;;;;5083768;28;20035;-79
2022/01/30 08:02:40;;;;;;;9.88;2.33;;;;;;;;;;5077705;28;20062;-78
2022/01/30 08:05:06;;;;;;;12.15;2.22;;;;;;;;;;5083635;28;20313;-78
2022/01/30 08:07:31;;;;;;;12.50;2.17;;;;;;;;;;5083066;28;20201;-78
2022/01/30 08:09:57;;;;;;;14.13;2.47;;;;;;;;;;5083561;28;20449;-78
2022/01/30 08:12:23;;;;;;;11.95;2.72;;;;;;;;;;5079234;28;20024;-78
2022/01/30 08:14:48;;;;;;;14.02;2.20;;;;;;;;;;5079947;28;20100;-78
2022/01/30 08:17:20;;;;;;;15.15;2.50;;;;;;;;;;5078016;28;20033;-78
2022/01/30 08:19:46;;;;;;;9.60;2.10;;;;;;;;;;5080872;28;20051;-78
2022/01/30 08:22:12;;;;;;;10.20;2.15;;;;;;;;;;5086312;28;20372;-79
2022/01/30 08:24:38;;;;;;;12.70;2.83;;;;;;;;;;5079965;28;20228;-78
2022/01/30 08:27:04;;;;;;;19.00;2.60;;;;;;;;;;5083139;28;20028;-79
2022/01/30 08:29:30;;;;;;;12.57;2.30;;;;;;;;;;5083384;28;20044;-77
2022/01/30 08:31:56;;;;;;;10.18;2.30;;;;;;;;;;5061946;28;20032;-79
2022/01/30 08:34:22;;;;;;;13.40;2.83;;;;;;;;;;5080906;28;20070;-78
2022/01/30 08:36:47;;;;;;;14.57;2.95;;;;;;;;;;5083239;28;20044;-78
2022/01/30 08:39:12;;;;;;;12.68;2.60;;;;;;;;;;5080976;28;20051;-78
2022/01/30 08:41:38;;;;;;;12.15;2.60;;;;;;;;;;5082909;28;20074;-78
2022/01/30 08:44:03;;;;;;;15.18;2.90;;;;;;;;;;5082317;28;20126;-79
2022/01/30 08:46:29;;;;;;;12.52;3.28;;;;;;;;;;5089531;28;20029;-79
2022/01/30 08:48:54;;;;;;;14.27;3.25;;;;;;;;;;5077675;28;20239;-77
2022/01/30 08:51:21;;;;;;;14.63;3.10;;;;;;;;;;5081736;28;20169;-79
2022/01/30 08:53:47;;;;;;;10.27;2.90;;;;;;;;;;5083071;28;20013;-78
2022/01/30 08:56:12;;;;;;;11.55;3.00;;;;;;;;;;5082770;28;20327;-79
2022/01/30 08:58:38;;;;;;;12.50;3.20;;;;;;;;;;5082674;28;20032;-78
2022/01/30 09:01:03;;;;;;;13.13;2.97;;;;;;;;;;5078268;28;20021;-78
2022/01/30 09:03:28;;;;;;;14.65;3.15;;;;;;;;;;5080405;28;20060;-79
2022/01/30 09:05:54;;;;;;;15.68;3.00;;;;;;;;;;5082621;28;20200;-78
2022/01/30 09:08:19;;;;;;;12.65;3.40;;;;;;;;;;5082096;28;20020;-79
2022/01/30 09:10:46;;;;;;;15.68;3.40;;;;;;;;;;5080141;28;20221;-79
2022/01/30 09:13:12;;;;;;;14.13;3.10;;;;;;;;;;5078826;28;20028;-77
2022/01/30 09:15:42;;;;;;;12.00;2.88;;;;;;;;;;5081678;28;20095;-77
2022/01/30 09:18:10;;;;;;;13.85;2.95;;;;;;;;;;5060499;28;20036;-77
2022/01/30 09:20:37;;;;;;;10.13;2.90;;;;;;;;;;5081169;28;20501;-77
2022/01/30 09:23:03;;;;;;;13.27;3.00;;;;;;;;;;5077949;28;20334;-76
2022/01/30 09:25:28;;;;;;;11.93;2.80;;;;;;;;;;5081910;28;20107;-78
2022/01/30 09:27:54;;;;;;;18.10;3.50;;;;;;;;;;5079934;28;20116;-76
2022/01/30 09:30:19;;;;;;;12.57;2.65;;;;;;;;;;5081810;28;20025;-73
2022/01/30 09:32:45;;;;;;;14.50;2.90;;;;;;;;;;5081808;28;20025;-73
2022/01/30 09:35:11;;;;;;;15.23;2.70;;;;;;;;;;5081711;28;20047;-73
2022/01/30 09:37:36;;;;;;;12.73;2.72;;;;;;;;;;5080630;28;20033;-74
2022/01/30 09:40:03;;;;;;;16.75;3.13;;;;;;;;;;5068768;28;20028;-73
2022/01/30 09:42:28;;;;;;;14.63;3.00;;;;;;;;;;5081494;28;20032;-72
2022/01/30 09:45:00;;;;;;;11.98;2.72;;;;;;;;;;5056791;28;20066;-73
2022/01/30 09:47:26;;;;;;;15.38;3.17;;;;;;;;;;5064397;28;20290;-74
2022/01/30 09:49:52;;;;;;;12.45;3.00;;;;;;;;;;5081575;28;20051;-73
2022/01/30 09:52:20;;;;;;;12.18;2.53;;;;;;;;;;5080956;28;20052;-74
2022/01/30 09:54:46;;;;;;;16.10;3.22;;;;;;;;;;5075729;28;20091;-73
2022/01/30 09:57:12;;;;;;;9.93;1.98;;;;;;;;;;5082720;28;20024;-75
2022/01/30 09:59:38;;;;;;;14.13;2.70;;;;;;;;;;5081479;28;20382;-74
2022/01/30 10:02:05;;;;;;;11.90;2.63;;;;;;;;;;5073829;28;20039;-75
2022/01/30 10:04:31;;;;;;;18.83;2.92;;;;;;;;;;5081120;28;20040;-74
2022/01/30 10:07:02;;;;;;;11.65;2.50;;;;;;;;;;5080976;28;20031;-75
2022/01/30 10:09:33;;;;;;;18.02;3.40;;;;;;;;;;5081246;28;20028;-72
2022/01/30 10:12:16;;;;;;;15.82;2.92;;;;;;;;;;5073049;28;20040;-76
2022/01/30 10:14:48;;;;;;;15.52;2.80;;;;;;;;;;5076880;28;20021;-75
2022/01/30 10:17:24;;;;;;;17.45;2.75;;;;;;;;;;5074781;28;20059;-73
2022/01/30 10:19:59;;;;;;;14.23;3.03;;;;;;;;;;5062807;28;20025;-73
2022/01/30 10:22:24;;;;;;;;;;;;;;;;;;5082720;28;20054;-74
2022/01/30 10:24:50;;;;;;;14.80;2.47;;;;;;;;;;5082888;28;19983;-74
2022/01/30 10:27:24;;;;;;;16.00;3.30;;;;;;;;;;5076681;28;20029;-73
2022/01/30 10:30:19;;;;;;;17.90;2.70;;;;;;;;;;5080916;28;20063;-74
2022/01/30 10:32:56;;;;;;;16.77;2.90;;;;;;;;;;5057496;28;20032;-74
2022/01/30 10:35:22;;;;;;;16.65;3.45;;;;;;;;;;5080851;28;20060;-74
2022/01/30 10:37:48;;;;;;;19.48;2.92;;;;;;;;;;5074903;28;20029;-73
2022/01/30 10:40:18;;;;;;;16.15;3.15;;;;;;;;;;5076861;28;20323;-73
2022/01/30 10:42:46;;;;;;;14.50;3.00;;;;;;;;;;5080515;28;20363;-73
2022/01/30 10:45:31;;;;;;;17.90;2.90;;;;;;;;;;5080935;28;20170;-73
2022/01/30 10:48:12;;;;;;;14.48;2.78;;;;;;;;;;5075126;28;20036;-73
2022/01/30 10:50:40;;;;;;;14.23;2.60;;;;;;;;;;5081498;28;20059;-73
2022/01/30 10:53:05;;;;;;;16.58;2.92;;;;;;;;;;5078684;28;20025;-73
2022/01/30 10:55:39;;;;;;;14.70;2.65;;;;;;;;;;5086783;28;20035;-74
2022/01/30 10:58:07;;;;;;;13.43;2.90;;;;;;;;;;5068674;28;20055;-73
2022/01/30 11:00:41;;;;;;;13.85;2.53;;;;;;;;;;5079816;28;20066;-73
2022/01/30 11:03:07;;;;;;;14.55;3.08;;;;;;;;;;5077891;28;20029;-73
2022/01/30 11:05:51;;;;;;;13.70;2.80;;;;;;;;;;5079920;28;20086;-73
2022/01/30 11:08:22;;;;;;;17.10;3.30;;;;;;;;;;5077901;28;20036;-74
2022/01/30 11:11:03;;;;;;;15.20;2.83;;;;;;;;;;5078371;28;20403;-74
2022/01/30 11:13:32;;;;;;;17.08;2.75;;;;;;;;;;5079356;28;20078;-73
2022/01/30 11:16:56;;;;;;;14.60;2.75;;;;;;;;;;5086093;28;20049;-73
2022/01/30 11:18:50;;;;;;;14.35;2.92;;;;;;;;;;5075750;28;20087;-73
2022/01/30 11:21:22;;;;;;;15.70;3.00;;;;;;;;;;5084589;28;20379;-74
2022/01/30 11:23:51;;;;;;;20.70;7.78;;;;;;;;;;5077952;28;20036;-74
2022/01/30 11:26:18;;;;;;;13.50;3.30;;;;;;;;;;5080120;28;20032;-73
2022/01/30 11:28:45;;;;;;;15.70;3.28;;;;;;;;;;5080315;28;20280;-74
2022/01/30 11:31:14;;;;;;;12.27;2.40;;;;;;;;;;5073740;28;20107;-73
2022/01/30 11:33:40;;;;;;;16.95;3.30;;;;;;;;;;5080364;28;20232;-73
2022/01/30 11:36:06;;;;;;;14.82;2.80;;;;;;;;;;5079888;28;20128;-73
2022/01/30 11:38:32;;;;;;;11.30;3.47;;;;;;;;;;5078725;28;20016;-74
2022/01/30 11:41:12;;;;;;;16.55;3.58;;;;;;;;;;5076440;28;20066;-74
2022/01/30 11:43:38;;;;;;;15.35;3.22;;;;;;;;;;5080090;28;20020;-73
2022/01/30 11:46:15;;;;;;;13.07;2.60;;;;;;;;;;5074841;28;20036;-73
2022/01/30 11:48:41;;;;;;;14.20;2.70;;;;;;;;;;5078497;28;20384;-72
2022/01/30 11:51:07;;;;;;;14.98;3.00;;;;;;;;;;5076509;28;20032;-73
2022/01/30 11:53:32;;;;;;;11.63;3.20;;;;;;;;;;5071589;28;20031;-75
2022/01/30 11:56:00;;;;;;;12.90;3.50;;;;;;;;;;5076878;28;20304;-75
2022/01/30 11:58:56;;;;;;;17.10;3.22;;;;;;;;;;5077085;28;20070;-73
2022/01/30 12:01:24;;;;;;;15.32;3.10;;;;;;;;;;5068435;28;20245;-72
2022/01/30 12:03:59;;;;;;;16.52;3.38;;;;;;;;;;5078530;28;20242;-73
2022/01/30 12:06:25;;;;;;;;;;;;;;;;;;5079753;28;20043;-73
2022/01/30 12:08:55;;;;;;;13.05;3.10;;;;;;;;;;5055404;28;20096;-73
2022/01/30 12:11:35;;;;;;;13.77;2.80;;;;;;;;;;5078792;28;20330;-74
2022/01/30 12:14:29;;;;;;;19.17;3.50;;;;;;;;;;5079481;28;20043;-74
2022/01/30 12:16:56;;;;;;;17.60;2.80;;;;;;;;;;5083069;28;20024;-74
2022/01/30 12:19:30;;;;;;;15.73;3.25;;;;;;;;;;5083550;28;20196;-75
2022/01/30 12:21:56;;;;;;;17.73;4.15;;;;;;;;;;5053778;28;20150;-75
2022/01/30 12:24:26;;;;;;;14.77;3.22;;;;;;;;;;5064526;28;20091;-73
2022/01/30 12:27:03;;;;;;;17.60;3.42;;;;;;;;;;5077241;28;20340;-73
2022/01/30 12:29:34;;;;;;;16.10;3.38;;;;;;;;;;5083209;28;20040;-75
2022/01/30 12:32:19;;;;;;;12.57;3.33;;;;;;;;;;5081408;28;20035;-76
2022/01/30 12:34:54;;;;;;;18.92;3.33;;;;;;;;;;5082851;28;20324;-74
2022/01/30 12:37:21;;;;;;;16.75;3.13;;;;;;;;;;5075499;28;20103;-76
2022/01/30 12:39:47;;;;;;;11.80;3.15;;;;;;;;;;5077987;28;20092;-75
2022/01/30 12:42:16;;;;;;;16.85;3.17;;;;;;;;;;5081095;28;20095;-74
2022/01/30 12:44:44;;;;;;;15.68;3.22;;;;;;;;;;5082710;28;20078;-74
2022/01/30 12:47:09;;;;;;;10.82;3.10;;;;;;;;;;5078051;28;20224;-74
2022/01/30 12:49:48;;;;;;;15.18;3.10;;;;;;;;;;5089420;28;20048;-74
2022/01/30 12:52:21;;;;;;;15.27;2.78;;;;;;;;;;5076950;28;20052;-75
2022/01/30 12:54:50;;;;;;;12.23;3.17;;;;;;;;;;5076813;28;20325;-74
2022/01/30 12:57:22;;;;;;;14.90;3.78;;;;;;;;;;5082478;28;20029;-73
2022/01/30 12:59:53;;;;;;;18.88;3.75;;;;;;;;;;5076336;28;20028;-73
2022/01/30 13:02:19;;;;;;;14.68;3.45;;;;;;;;;;5072301;28;20031;-74
2022/01/30 13:04:44;;;;;;;16.55;3.17;;;;;;;;;;5080483;28;20041;-73
2022/01/30 13:07:13;;;;;;;14.30;3.10;;;;;;;;;;5082236;28;20036;-74
2022/01/30 13:09:39;;;;;;;14.80;3.20;;;;;;;;;;5076310;28;20056;-74
2022/01/30 13:12:13;;;;;;;14.57;3.25;;;;;;;;;;5082568;28;20186;-77
2022/01/30 13:14:41;;;;;;;15.65;3.13;;;;;;;;;;5080726;28;20328;-75
2022/01/30 13:17:07;;;;;;;16.08;3.40;;;;;;;;;;5067710;28;20036;-74
2022/01/30 13:19:35;;;;;;;13.13;3.15;;;;;;;;;;5083819;28;20253;-74
2022/01/30 13:22:03;;;;;;;17.40;3.60;;;;;;;;;;5081846;28;20032;-75
2022/01/30 13:24:29;;;;;;;15.35;3.28;;;;;;;;;;5060014;28;20332;-74
2022/01/30 13:26:56;;;;;;;16.15;3.60;;;;;;;;;;5081931;28;20062;-77
2022/01/30 13:29:22;;;;;;;13.82;2.92;;;;;;;;;;5076723;28;20036;-74
2022/01/30 13:31:54;;;;;;;14.65;3.20;;;;;;;;;;5078507;28;20088;-75
2022/01/30 13:34:28;;;;;;;17.77;3.65;;;;;;;;;;5082494;28;20020;-75
2022/01/30 13:37:02;;;;;;;16.85;4.22;;;;;;;;;;5063249;28;20335;-76
2022/01/30 13:40:00;;;;;;;13.95;3.17;;;;;;;;;;5074929;28;20250;-75
2022/01/30 13:48:04;;;;;;;17.02;3.63;;;;;;;;;;5087934;28;20027;-77
2022/01/30 13:50:40;;;;;;;12.73;2.90;;;;;;;;;;5088340;28;20036;-77
2022/01/30 13:53:28;;;;;;;15.18;3.60;;;;;;;;;;5069622;28;20029;-77
2022/01/30 13:56:00;;;;;;;18.50;3.50;;;;;;;;;;5078018;28;20033;-76
2022/01/30 13:58:47;;;;;;;20.40;4.18;;;;;;;;;;5078574;28;20317;-78
2022/01/30 14:01:13;;;;;;;19.25;4.50;;;;;;;;;;5074472;28;20032;-77
2022/01/30 14:03:41;;;;;;;20.17;4.40;;;;;;;;;;5081131;28;20036;-77
2022/01/30 14:06:24;;;;;;;12.20;2.95;;;;;;;;;;5080923;28;20028;-76
2022/01/30 14:08:56;;;;;;;14.70;3.60;;;;;;;;;;5069783;28;20032;-77
2022/01/30 14:11:30;;;;;;;19.35;3.25;;;;;;;;;;5075120;28;20032;-77
2022/01/30 14:14:15;;;;;;;16.75;3.33;;;;;;;;;;5081429;28;20059;-77
2022/01/30 14:16:48;;;;;;;15.65;3.10;;;;;;;;;;5077801;28;20331;-77
2022/01/30 14:19:29;;;;;;;14.95;3.35;;;;;;;;;;5072473;28;20044;-77
2022/01/30 14:22:10;;;;;;;15.25;3.38;;;;;;;;;;5074667;28;20223;-77
2022/01/30 14:24:36;;;;;;;14.65;3.10;;;;;;;;;;5081093;28;20244;-78
2022/01/30 14:27:09;;;;;;;12.60;2.85;;;;;;;;;;5080809;28;20122;-78
2022/01/30 14:29:35;;;;;;;16.33;2.70;;;;;;;;;;5080896;28;20088;-78
2022/01/30 14:32:07;;;;;;;18.42;3.17;;;;;;;;;;5080897;28;20028;-77
2022/01/30 14:34:33;;;;;;;15.23;3.00;;;;;;;;;;5081273;28;20028;-74
2022/01/30 14:37:01;;;;;;;13.25;2.95;;;;;;;;;;5079210;28;20050;-73
2022/01/30 14:39:28;;;;;;;13.27;3.25;;;;;;;;;;5080231;28;20053;-73
2022/01/30 14:41:53;;;;;;;15.35;4.07;;;;;;;;;;5080727;28;20134;-74
2022/01/30 14:44:19;;;;;;;9.65;2.70;;;;;;;;;;5080860;28;20259;-73
2022/01/30 14:46:45;;;;;;;19.33;2.80;;;;;;;;;;5087485;28;20101;-74
2022/01/30 14:49:10;;;;;;;15.15;2.83;;;;;;;;;;5080585;28;20027;-74
2022/01/30 14:51:36;;;;;;;12.38;2.97;;;;;;;;;;5080187;28;20028;-73
2022/01/30 14:54:02;;;;;;;15.80;3.45;;;;;;;;;;5081073;28;20257;-74
2022/01/30 14:56:31;;;;;;;15.48;3.00;;;;;;;;;;5080528;28;20236;-74
2022/01/30 14:58:56;;;;;;;16.75;2.70;;;;;;;;;;5080651;28;20087;-73
2022/01/30 15:01:22;;;;;;;13.85;3.10;;;;;;;;;;5062640;28;20093;-74
2022/01/30 15:03:47;;;;;;;16.13;3.45;;;;;;;;;;5062701;28;20328;-74
2022/01/30 15:06:13;;;;;;;11.23;2.60;;;;;;;;;;5080191;28;20033;-73
2022/01/30 15:08:39;;;;;;;12.25;2.90;;;;;;;;;;5078346;28;20343;-73
2022/01/30 15:11:04;;;;;;;14.30;2.80;;;;;;;;;;5080352;28;20024;-73
2022/01/30 15:13:32;;;;;;;13.07;3.00;;;;;;;;;;5080382;28;20024;-73
2022/01/30 15:15:58;;;;;;;15.27;2.72;;;;;;;;;;5080608;28;20017;-73
2022/01/30 15:18:30;;;;;;;14.82;3.08;;;;;;;;;;5080159;28;20044;-74
2022/01/30 15:20:56;;;;;;;9.38;2.65;;;;;;;;;;5076847;28;20033;-74
2022/01/30 15:23:22;;;;;;;13.73;2.65;;;;;;;;;;5061736;28;20029;-73
2022/01/30 15:25:47;;;;;;;13.85;2.47;;;;;;;;;;5080218;28;20028;-74
2022/01/30 15:28:12;;;;;;;12.95;3.00;;;;;;;;;;5079531;28;20074;-73
2022/01/30 15:30:38;;;;;;;15.57;2.50;;;;;;;;;;5075029;28;20067;-73
2022/01/30 15:33:03;;;;;;;9.13;2.38;;;;;;;;;;5071423;28;20024;-74
2022/01/30 15:35:29;;;;;;;10.77;2.60;;;;;;;;;;5077697;28;20070;-74
2022/01/30 15:37:54;;;;;;;13.82;2.80;;;;;;;;;;5074989;28;20024;-73
2022/01/30 15:40:20;;;;;;;17.52;2.78;;;;;;;;;;5078102;28;20028;-74